sensor_id;sensor_type;location;lat;lon;timestamp;P1;durP1;ratioP1;P2;durP2;ratioP2
15936;SDS011;9163;48.818;8.976;2023-04-03T00:00:12;4.07;;;3.00;;
15936;SDS011;9163;48.818;8.976;2023-04-03T00:02:40;4.17;;;3.10;;
15936;SDS011;9163;48.818;8.976;2023-04-03T00:05:07;5.57;;;3.10;;
15936;SDS011;9163;48.818;8.976;2023-04-03T00:07:34;4.50;;;2.77;;
15936;SDS011;9163;48.818;8.976;2023-04-03T00:10:02;6.10;;;3.00;;
15936;SDS011;9163;48.818;8.976;2023-04-03T00:12:30;6.57;;;2.80;;
15936;SDS011;9163;48.818;8.976;2023-04-03T00:14:58;4.67;;;3.30;;
15936;SDS011;9163;48.818;8.976;2023-04-03T00:17:25;7.17;;;3.00;;
15936;SDS011;9163;48.818;8.976;2023-04-03T00:19:53;3.63;;;3.03;;
15936;SDS011;9163;48.818;8.976;2023-04-03T00:22:20;3.90;;;3.00;;
15936;SDS011;9163;48.818;8.976;2023-04-03T00:24:47;4.47;;;3.00;;
15936;SDS011;9163;48.818;8.976;2023-04-03T00:27:14;4.67;;;3.10;;
15936;SDS011;9163;48.818;8.976;2023-04-03T00:29:42;4.10;;;2.90;;
15936;SDS011;9163;48.818;8.976;2023-04-03T00:32:10;7.00;;;3.37;;
15936;SDS011;9163;48.818;8.976;2023-04-03T00:34:38;6.73;;;3.33;;
15936;SDS011;9163;48.818;8.976;2023-04-03T00:37:05;4.60;;;3.00;;
15936;SDS011;9163;48.818;8.976;2023-04-03T00:39:32;4.87;;;3.13;;
15936;SDS011;9163;48.818;8.976;2023-04-03T00:42:00;3.50;;;2.80;;
15936;SDS011;9163;48.818;8.976;2023-04-03T00:47:29;5.50;;;2.83;;
15936;SDS011;9163;48.818;8.976;2023-04-03T00:49:57;3.60;;;2.87;;
15936;SDS011;9163;48.818;8.976;2023-04-03T00:52:25;4.33;;;3.07;;
15936;SDS011;9163;48.818;8.976;2023-04-03T00:54:56;5.63;;;3.10;;
15936;SDS011;9163;48.818;8.976;2023-04-03T00:57:27;4.87;;;3.40;;
15936;SDS011;9163;48.818;8.976;2023-04-03T00:59:57;4.33;;;3.40;;
15936;SDS011;9163;48.818;8.976;2023-04-03T01:02:31;3.73;;;2.77;;
15936;SDS011;9163;48.818;8.976;2023-04-03T01:04:58;4.40;;;3.03;;
15936;SDS011;9163;48.818;8.976;2023-04-03T01:07:28;3.73;;;3.00;;
15936;SDS011;9163;48.818;8.976;2023-04-03T01:09:57;4.00;;;2.90;;
15936;SDS011;9163;48.818;8.976;2023-04-03T01:12:27;4.93;;;3.23;;
15936;SDS011;9163;48.818;8.976;2023-04-03T01:14:56;4.63;;;3.27;;
15936;SDS011;9163;48.818;8.976;2023-04-03T01:17:27;5.47;;;2.93;;
15936;SDS011;9163;48.818;8.976;2023-04-03T01:20:02;4.70;;;3.10;;
15936;SDS011;9163;48.818;8.976;2023-04-03T01:22:56;4.80;;;3.17;;
15936;SDS011;9163;48.818;8.976;2023-04-03T01:25:32;5.03;;;3.57;;
15936;SDS011;9163;48.818;8.976;2023-04-03T01:28:00;3.90;;;3.07;;
15936;SDS011;9163;48.818;8.976;2023-04-03T01:30:30;6.20;;;3.20;;
15936;SDS011;9163;48.818;8.976;2023-04-03T01:33:00;5.23;;;3.17;;
15936;SDS011;9163;48.818;8.976;2023-04-03T01:35:27;4.30;;;3.00;;
15936;SDS011;9163;48.818;8.976;2023-04-03T01:37:55;4.43;;;3.40;;
15936;SDS011;9163;48.818;8.976;2023-04-03T01:40:22;5.07;;;3.43;;
15936;SDS011;9163;48.818;8.976;2023-04-03T01:42:50;4.17;;;3.23;;
15936;SDS011;9163;48.818;8.976;2023-04-03T01:45:17;3.73;;;2.73;;
15936;SDS011;9163;48.818;8.976;2023-04-03T01:47:44;6.33;;;3.40;;
15936;SDS011;9163;48.818;8.976;2023-04-03T01:50:13;5.13;;;3.33;;
15936;SDS011;9163;48.818;8.976;2023-04-03T01:52:40;4.53;;;3.00;;
15936;SDS011;9163;48.818;8.976;2023-04-03T01:55:08;4.03;;;2.93;;
15936;SDS011;9163;48.818;8.976;2023-04-03T01:57:35;5.53;;;2.87;;
15936;SDS011;9163;48.818;8.976;2023-04-03T02:00:03;5.80;;;2.90;;
15936;SDS011;9163;48.818;8.976;2023-04-03T02:02:30;5.27;;;3.33;;
15936;SDS011;9163;48.818;8.976;2023-04-03T02:04:58;4.97;;;3.40;;
15936;SDS011;9163;48.818;8.976;2023-04-03T02:07:26;7.13;;;3.57;;
15936;SDS011;9163;48.818;8.976;2023-04-03T02:09:53;6.27;;;3.17;;
15936;SDS011;9163;48.818;8.976;2023-04-03T02:12:21;4.27;;;3.03;;
15936;SDS011;9163;48.818;8.976;2023-04-03T02:14:48;4.27;;;3.13;;
15936;SDS011;9163;48.818;8.976;2023-04-03T02:17:15;5.47;;;3.33;;
15936;SDS011;9163;48.818;8.976;2023-04-03T02:19:43;4.67;;;3.47;;
15936;SDS011;9163;48.818;8.976;2023-04-03T02:22:10;4.67;;;3.30;;
15936;SDS011;9163;48.818;8.976;2023-04-03T02:24:38;3.97;;;3.03;;
15936;SDS011;9163;48.818;8.976;2023-04-03T02:27:06;7.00;;;3.40;;
15936;SDS011;9163;48.818;8.976;2023-04-03T02:29:34;7.40;;;3.50;;
15936;SDS011;9163;48.818;8.976;2023-04-03T02:32:01;4.97;;;3.20;;
15936;SDS011;9163;48.818;8.976;2023-04-03T02:34:28;6.07;;;3.50;;
15936;SDS011;9163;48.818;8.976;2023-04-03T02:36:55;5.30;;;3.27;;
15936;SDS011;9163;48.818;8.976;2023-04-03T02:39:23;5.07;;;3.30;;
15936;SDS011;9163;48.818;8.976;2023-04-03T02:41:51;6.90;;;3.70;;
15936;SDS011;9163;48.818;8.976;2023-04-03T02:44:18;5.17;;;3.27;;
15936;SDS011;9163;48.818;8.976;2023-04-03T02:46:46;4.50;;;3.27;;
15936;SDS011;9163;48.818;8.976;2023-04-03T02:49:13;4.77;;;3.20;;
15936;SDS011;9163;48.818;8.976;2023-04-03T02:51:41;5.80;;;3.27;;
15936;SDS011;9163;48.818;8.976;2023-04-03T02:54:08;4.97;;;3.27;;
15936;SDS011;9163;48.818;8.976;2023-04-03T02:56:35;7.73;;;3.33;;
15936;SDS011;9163;48.818;8.976;2023-04-03T02:59:04;6.97;;;3.50;;
15936;SDS011;9163;48.818;8.976;2023-04-03T03:01:31;5.03;;;3.33;;
15936;SDS011;9163;48.818;8.976;2023-04-03T03:03:58;5.87;;;3.47;;
15936;SDS011;9163;48.818;8.976;2023-04-03T03:06:26;5.87;;;3.30;;
15936;SDS011;9163;48.818;8.976;2023-04-03T03:08:53;5.33;;;3.20;;
15936;SDS011;9163;48.818;8.976;2023-04-03T03:11:21;4.83;;;3.33;;
15936;SDS011;9163;48.818;8.976;2023-04-03T03:13:48;3.57;;;2.93;;
15936;SDS011;9163;48.818;8.976;2023-04-03T03:16:17;4.77;;;3.50;;
15936;SDS011;9163;48.818;8.976;2023-04-03T03:18:44;7.17;;;3.30;;
15936;SDS011;9163;48.818;8.976;2023-04-03T03:21:11;5.03;;;3.40;;
15936;SDS011;9163;48.818;8.976;2023-04-03T03:23:38;4.23;;;3.30;;
15936;SDS011;9163;48.818;8.976;2023-04-03T03:26:06;5.87;;;3.27;;
15936;SDS011;9163;48.818;8.976;2023-04-03T03:28:36;4.53;;;3.27;;
15936;SDS011;9163;48.818;8.976;2023-04-03T03:31:05;4.23;;;2.87;;
15936;SDS011;9163;48.818;8.976;2023-04-03T03:33:34;5.53;;;3.33;;
15936;SDS011;9163;48.818;8.976;2023-04-03T03:36:01;4.50;;;3.10;;
15936;SDS011;9163;48.818;8.976;2023-04-03T03:38:28;4.03;;;2.87;;
15936;SDS011;9163;48.818;8.976;2023-04-03T03:40:56;4.50;;;3.30;;
15936;SDS011;9163;48.818;8.976;2023-04-03T03:43:23;4.80;;;3.13;;
15936;SDS011;9163;48.818;8.976;2023-04-03T03:45:50;4.33;;;2.87;;
15936;SDS011;9163;48.818;8.976;2023-04-03T03:48:18;3.60;;;2.90;;
15936;SDS011;9163;48.818;8.976;2023-04-03T03:50:47;4.33;;;2.90;;
15936;SDS011;9163;48.818;8.976;2023-04-03T03:53:15;6.33;;;2.93;;
15936;SDS011;9163;48.818;8.976;2023-04-03T03:55:43;3.80;;;2.87;;
15936;SDS011;9163;48.818;8.976;2023-04-03T03:58:10;4.27;;;2.77;;
15936;SDS011;9163;48.818;8.976;2023-04-03T04:00:37;5.27;;;2.80;;
15936;SDS011;9163;48.818;8.976;2023-04-03T04:03:04;3.37;;;2.67;;
15936;SDS011;9163;48.818;8.976;2023-04-03T04:05:32;5.33;;;3.00;;
15936;SDS011;9163;48.818;8.976;2023-04-03T04:08:00;5.10;;;2.90;;
15936;SDS011;9163;48.818;8.976;2023-04-03T04:10:27;4.00;;;2.97;;
15936;SDS011;9163;48.818;8.976;2023-04-03T04:12:55;4.40;;;3.00;;
15936;SDS011;9163;48.818;8.976;2023-04-03T04:15:22;4.50;;;2.63;;
15936;SDS011;9163;48.818;8.976;2023-04-03T04:17:51;3.97;;;2.80;;
15936;SDS011;9163;48.818;8.976;2023-04-03T04:20:18;4.03;;;3.07;;
15936;SDS011;9163;48.818;8.976;2023-04-03T04:22:45;4.47;;;2.80;;
15936;SDS011;9163;48.818;8.976;2023-04-03T04:25:14;3.50;;;2.60;;
15936;SDS011;9163;48.818;8.976;2023-04-03T04:27:41;4.50;;;2.70;;
15936;SDS011;9163;48.818;8.976;2023-04-03T04:30:09;3.30;;;2.70;;
15936;SDS011;9163;48.818;8.976;2023-04-03T04:32:38;3.83;;;3.00;;
15936;SDS011;9163;48.818;8.976;2023-04-03T04:35:05;3.43;;;2.60;;
15936;SDS011;9163;48.818;8.976;2023-04-03T04:37:32;6.03;;;3.43;;
15936;SDS011;9163;48.818;8.976;2023-04-03T04:40:00;3.30;;;2.67;;
15936;SDS011;9163;48.818;8.976;2023-04-03T04:42:29;4.07;;;3.00;;
15936;SDS011;9163;48.818;8.976;2023-04-03T04:44:56;4.60;;;3.10;;
15936;SDS011;9163;48.818;8.976;2023-04-03T04:47:23;3.63;;;2.80;;
15936;SDS011;9163;48.818;8.976;2023-04-03T04:49:50;4.73;;;3.20;;
15936;SDS011;9163;48.818;8.976;2023-04-03T04:52:18;4.07;;;2.87;;
15936;SDS011;9163;48.818;8.976;2023-04-03T04:54:45;3.80;;;3.10;;
15936;SDS011;9163;48.818;8.976;2023-04-03T04:57:12;5.63;;;3.23;;
15936;SDS011;9163;48.818;8.976;2023-04-03T04:59:41;5.00;;;3.03;;
15936;SDS011;9163;48.818;8.976;2023-04-03T05:02:08;3.87;;;3.00;;
15936;SDS011;9163;48.818;8.976;2023-04-03T05:04:35;4.50;;;3.10;;
15936;SDS011;9163;48.818;8.976;2023-04-03T05:07:03;5.00;;;3.10;;
15936;SDS011;9163;48.818;8.976;2023-04-03T05:09:30;2.90;;;2.50;;
15936;SDS011;9163;48.818;8.976;2023-04-03T05:11:57;2.83;;;2.30;;
15936;SDS011;9163;48.818;8.976;2023-04-03T05:14:25;4.00;;;2.70;;
15936;SDS011;9163;48.818;8.976;2023-04-03T05:16:53;3.77;;;2.77;;
15936;SDS011;9163;48.818;8.976;2023-04-03T05:19:21;3.40;;;2.53;;
15936;SDS011;9163;48.818;8.976;2023-04-03T05:21:48;3.33;;;2.53;;
15936;SDS011;9163;48.818;8.976;2023-04-03T05:24:16;3.77;;;2.37;;
15936;SDS011;9163;48.818;8.976;2023-04-03T05:26:43;2.87;;;2.47;;
15936;SDS011;9163;48.818;8.976;2023-04-03T05:29:10;3.47;;;2.63;;
15936;SDS011;9163;48.818;8.976;2023-04-03T05:31:38;2.80;;;2.40;;
15936;SDS011;9163;48.818;8.976;2023-04-03T05:34:06;3.10;;;2.33;;
15936;SDS011;9163;48.818;8.976;2023-04-03T05:36:33;4.73;;;2.93;;
15936;SDS011;9163;48.818;8.976;2023-04-03T05:39:01;5.50;;;2.70;;
15936;SDS011;9163;48.818;8.976;2023-04-03T05:41:29;5.03;;;2.73;;
15936;SDS011;9163;48.818;8.976;2023-04-03T05:43:56;4.40;;;2.57;;
15936;SDS011;9163;48.818;8.976;2023-04-03T05:46:23;5.27;;;2.80;;
15936;SDS011;9163;48.818;8.976;2023-04-03T05:48:51;5.07;;;3.20;;
15936;SDS011;9163;48.818;8.976;2023-04-03T05:51:20;5.23;;;2.70;;
15936;SDS011;9163;48.818;8.976;2023-04-03T05:53:52;4.07;;;2.70;;
15936;SDS011;9163;48.818;8.976;2023-04-03T05:56:25;5.47;;;2.70;;
15936;SDS011;9163;48.818;8.976;2023-04-03T05:58:52;5.60;;;2.50;;
15936;SDS011;9163;48.818;8.976;2023-04-03T06:01:20;3.77;;;2.90;;
15936;SDS011;9163;48.818;8.976;2023-04-03T06:03:48;4.97;;;2.80;;
15936;SDS011;9163;48.818;8.976;2023-04-03T06:06:16;5.90;;;3.00;;
15936;SDS011;9163;48.818;8.976;2023-04-03T06:08:44;7.47;;;2.97;;
15936;SDS011;9163;48.818;8.976;2023-04-03T06:11:12;6.63;;;3.00;;
15936;SDS011;9163;48.818;8.976;2023-04-03T06:13:39;4.03;;;2.90;;
15936;SDS011;9163;48.818;8.976;2023-04-03T06:16:06;4.87;;;2.67;;
15936;SDS011;9163;48.818;8.976;2023-04-03T06:18:35;4.57;;;2.53;;
15936;SDS011;9163;48.818;8.976;2023-04-03T06:21:02;15.53;;;7.70;;
15936;SDS011;9163;48.818;8.976;2023-04-03T06:23:30;9.93;;;6.40;;
15936;SDS011;9163;48.818;8.976;2023-04-03T06:25:59;10.70;;;6.73;;
15936;SDS011;9163;48.818;8.976;2023-04-03T06:28:27;7.93;;;5.43;;
15936;SDS011;9163;48.818;8.976;2023-04-03T06:30:54;6.67;;;2.97;;
15936;SDS011;9163;48.818;8.976;2023-04-03T06:33:21;5.23;;;2.80;;
15936;SDS011;9163;48.818;8.976;2023-04-03T06:35:48;7.37;;;4.50;;
15936;SDS011;9163;48.818;8.976;2023-04-03T06:38:16;10.47;;;6.23;;
15936;SDS011;9163;48.818;8.976;2023-04-03T06:40:44;7.87;;;4.53;;
15936;SDS011;9163;48.818;8.976;2023-04-03T06:43:12;6.73;;;4.57;;
15936;SDS011;9163;48.818;8.976;2023-04-03T06:45:40;5.80;;;3.00;;
15936;SDS011;9163;48.818;8.976;2023-04-03T06:48:07;3.80;;;2.93;;
15936;SDS011;9163;48.818;8.976;2023-04-03T06:50:34;6.17;;;3.17;;
15936;SDS011;9163;48.818;8.976;2023-04-03T06:53:01;5.80;;;2.67;;
15936;SDS011;9163;48.818;8.976;2023-04-03T06:55:31;4.03;;;2.93;;
15936;SDS011;9163;48.818;8.976;2023-04-03T06:57:58;5.53;;;2.80;;
15936;SDS011;9163;48.818;8.976;2023-04-03T07:00:27;3.67;;;2.67;;
15936;SDS011;9163;48.818;8.976;2023-04-03T07:02:54;5.40;;;2.90;;
15936;SDS011;9163;48.818;8.976;2023-04-03T07:05:22;3.47;;;2.70;;
15936;SDS011;9163;48.818;8.976;2023-04-03T07:07:50;6.27;;;4.10;;
15936;SDS011;9163;48.818;8.976;2023-04-03T07:10:18;4.60;;;3.47;;
15936;SDS011;9163;48.818;8.976;2023-04-03T07:12:45;6.47;;;3.47;;
15936;SDS011;9163;48.818;8.976;2023-04-03T07:15:13;5.60;;;3.27;;
15936;SDS011;9163;48.818;8.976;2023-04-03T07:17:41;5.40;;;3.33;;
15936;SDS011;9163;48.818;8.976;2023-04-03T07:20:09;6.17;;;3.20;;
15936;SDS011;9163;48.818;8.976;2023-04-03T07:22:37;4.23;;;2.87;;
15936;SDS011;9163;48.818;8.976;2023-04-03T07:25:05;5.13;;;2.70;;
15936;SDS011;9163;48.818;8.976;2023-04-03T07:27:33;3.77;;;2.53;;
15936;SDS011;9163;48.818;8.976;2023-04-03T07:30:00;8.90;;;3.13;;
15936;SDS011;9163;48.818;8.976;2023-04-03T07:32:28;3.90;;;3.07;;
15936;SDS011;9163;48.818;8.976;2023-04-03T07:34:57;4.20;;;2.77;;
15936;SDS011;9163;48.818;8.976;2023-04-03T07:37:24;4.10;;;3.10;;
15936;SDS011;9163;48.818;8.976;2023-04-03T07:39:52;6.47;;;2.83;;
15936;SDS011;9163;48.818;8.976;2023-04-03T07:42:20;5.27;;;3.13;;
15936;SDS011;9163;48.818;8.976;2023-04-03T07:44:47;4.80;;;3.10;;
15936;SDS011;9163;48.818;8.976;2023-04-03T07:47:15;4.00;;;2.80;;
15936;SDS011;9163;48.818;8.976;2023-04-03T07:49:43;5.40;;;3.20;;
15936;SDS011;9163;48.818;8.976;2023-04-03T07:52:12;5.27;;;3.00;;
15936;SDS011;9163;48.818;8.976;2023-04-03T07:54:40;6.07;;;3.10;;
15936;SDS011;9163;48.818;8.976;2023-04-03T07:57:07;5.30;;;2.80;;
15936;SDS011;9163;48.818;8.976;2023-04-03T07:59:35;9.33;;;3.40;;
15936;SDS011;9163;48.818;8.976;2023-04-03T08:02:02;8.83;;;3.17;;
15936;SDS011;9163;48.818;8.976;2023-04-03T08:04:30;5.23;;;3.10;;
15936;SDS011;9163;48.818;8.976;2023-04-03T08:06:57;6.00;;;3.30;;
15936;SDS011;9163;48.818;8.976;2023-04-03T08:09:26;5.73;;;2.90;;
15936;SDS011;9163;48.818;8.976;2023-04-03T08:11:53;5.73;;;2.83;;
15936;SDS011;9163;48.818;8.976;2023-04-03T08:14:21;5.33;;;2.77;;
15936;SDS011;9163;48.818;8.976;2023-04-03T08:16:48;4.40;;;2.83;;
15936;SDS011;9163;48.818;8.976;2023-04-03T08:19:15;4.23;;;2.70;;
15936;SDS011;9163;48.818;8.976;2023-04-03T08:21:43;5.03;;;2.87;;
15936;SDS011;9163;48.818;8.976;2023-04-03T08:24:11;5.63;;;3.20;;
15936;SDS011;9163;48.818;8.976;2023-04-03T08:26:39;4.57;;;2.33;;
15936;SDS011;9163;48.818;8.976;2023-04-03T08:29:06;4.97;;;2.83;;
15936;SDS011;9163;48.818;8.976;2023-04-03T08:31:34;4.47;;;2.50;;
15936;SDS011;9163;48.818;8.976;2023-04-03T08:34:03;3.30;;;2.50;;
15936;SDS011;9163;48.818;8.976;2023-04-03T08:36:30;6.37;;;2.97;;
15936;SDS011;9163;48.818;8.976;2023-04-03T08:38:57;5.27;;;2.90;;
15936;SDS011;9163;48.818;8.976;2023-04-03T08:41:27;4.70;;;2.57;;
15936;SDS011;9163;48.818;8.976;2023-04-03T08:44:10;5.43;;;2.70;;
15936;SDS011;9163;48.818;8.976;2023-04-03T08:46:45;5.07;;;3.10;;
15936;SDS011;9163;48.818;8.976;2023-04-03T08:49:22;4.60;;;2.40;;
15936;SDS011;9163;48.818;8.976;2023-04-03T08:51:53;4.57;;;2.40;;
15936;SDS011;9163;48.818;8.976;2023-04-03T08:54:28;4.50;;;2.60;;
15936;SDS011;9163;48.818;8.976;2023-04-03T08:56:59;5.20;;;2.47;;
15936;SDS011;9163;48.818;8.976;2023-04-03T08:59:32;3.63;;;2.50;;
15936;SDS011;9163;48.818;8.976;2023-04-03T09:02:02;6.50;;;2.60;;
15936;SDS011;9163;48.818;8.976;2023-04-03T09:04:38;6.40;;;2.63;;
15936;SDS011;9163;48.818;8.976;2023-04-03T09:07:06;4.27;;;2.47;;
15936;SDS011;9163;48.818;8.976;2023-04-03T09:09:40;3.00;;;2.30;;
15936;SDS011;9163;48.818;8.976;2023-04-03T09:12:14;3.73;;;2.20;;
15936;SDS011;9163;48.818;8.976;2023-04-03T09:14:49;4.60;;;2.33;;
15936;SDS011;9163;48.818;8.976;2023-04-03T09:17:25;5.60;;;2.50;;
15936;SDS011;9163;48.818;8.976;2023-04-03T09:20:06;2.90;;;2.23;;
15936;SDS011;9163;48.818;8.976;2023-04-03T09:22:44;3.87;;;2.30;;
15936;SDS011;9163;48.818;8.976;2023-04-03T09:25:12;4.23;;;2.43;;
15936;SDS011;9163;48.818;8.976;2023-04-03T09:27:42;3.73;;;2.40;;
15936;SDS011;9163;48.818;8.976;2023-04-03T09:30:14;4.53;;;2.10;;
15936;SDS011;9163;48.818;8.976;2023-04-03T09:32:43;5.20;;;2.13;;
15936;SDS011;9163;48.818;8.976;2023-04-03T09:35:21;2.93;;;2.10;;
15936;SDS011;9163;48.818;8.976;2023-04-03T09:37:51;5.23;;;2.60;;
15936;SDS011;9163;48.818;8.976;2023-04-03T09:43:21;4.60;;;2.63;;
15936;SDS011;9163;48.818;8.976;2023-04-03T09:45:54;4.10;;;2.30;;
15936;SDS011;9163;48.818;8.976;2023-04-03T09:48:23;3.57;;;2.30;;
15936;SDS011;9163;48.818;8.976;2023-04-03T09:50:54;5.30;;;2.53;;
15936;SDS011;9163;48.818;8.976;2023-04-03T09:53:26;3.37;;;2.20;;
15936;SDS011;9163;48.818;8.976;2023-04-03T09:55:55;5.40;;;2.20;;
15936;SDS011;9163;48.818;8.976;2023-04-03T09:58:25;3.53;;;2.23;;
15936;SDS011;9163;48.818;8.976;2023-04-03T10:00:56;4.13;;;2.00;;
15936;SDS011;9163;48.818;8.976;2023-04-03T10:03:27;4.13;;;2.10;;
15936;SDS011;9163;48.818;8.976;2023-04-03T10:05:57;2.20;;;1.90;;
15936;SDS011;9163;48.818;8.976;2023-04-03T10:08:27;4.43;;;2.03;;
15936;SDS011;9163;48.818;8.976;2023-04-03T10:11:06;4.90;;;2.07;;
15936;SDS011;9163;48.818;8.976;2023-04-03T10:13:51;3.13;;;2.00;;
15936;SDS011;9163;48.818;8.976;2023-04-03T10:16:27;2.63;;;1.80;;
15936;SDS011;9163;48.818;8.976;2023-04-03T10:19:03;3.03;;;1.50;;
15936;SDS011;9163;48.818;8.976;2023-04-03T10:21:40;2.40;;;1.60;;
15936;SDS011;9163;48.818;8.976;2023-04-03T10:24:13;1.90;;;1.50;;
15936;SDS011;9163;48.818;8.976;2023-04-03T10:26:49;2.93;;;1.70;;
15936;SDS011;9163;48.818;8.976;2023-04-03T10:29:27;2.57;;;1.60;;
15936;SDS011;9163;48.818;8.976;2023-04-03T10:32:06;3.77;;;1.53;;
15936;SDS011;9163;48.818;8.976;2023-04-03T10:34:43;3.03;;;1.70;;
15936;SDS011;9163;48.818;8.976;2023-04-03T10:37:13;4.30;;;1.80;;
15936;SDS011;9163;48.818;8.976;2023-04-03T10:39:51;2.57;;;1.60;;
15936;SDS011;9163;48.818;8.976;2023-04-03T10:42:25;2.43;;;1.57;;
15936;SDS011;9163;48.818;8.976;2023-04-03T10:45:03;3.27;;;1.50;;
15936;SDS011;9163;48.818;8.976;2023-04-03T10:47:48;2.77;;;1.60;;
15936;SDS011;9163;48.818;8.976;2023-04-03T10:50:27;3.53;;;1.60;;
15936;SDS011;9163;48.818;8.976;2023-04-03T10:53:03;6.33;;;1.80;;
15936;SDS011;9163;48.818;8.976;2023-04-03T10:55:36;3.67;;;1.80;;
15936;SDS011;9163;48.818;8.976;2023-04-03T10:58:08;6.57;;;1.80;;
15936;SDS011;9163;48.818;8.976;2023-04-03T11:00:47;3.53;;;1.63;;
15936;SDS011;9163;48.818;8.976;2023-04-03T11:03:22;3.47;;;1.50;;
15936;SDS011;9163;48.818;8.976;2023-04-03T11:05:55;3.03;;;1.67;;
15936;SDS011;9163;48.818;8.976;2023-04-03T11:08:25;5.03;;;1.67;;
15936;SDS011;9163;48.818;8.976;2023-04-03T11:10:56;2.93;;;1.60;;
15936;SDS011;9163;48.818;8.976;2023-04-03T11:13:27;1.83;;;1.20;;
15936;SDS011;9163;48.818;8.976;2023-04-03T11:15:59;2.10;;;1.60;;
15936;SDS011;9163;48.818;8.976;2023-04-03T11:18:31;2.37;;;1.60;;
15936;SDS011;9163;48.818;8.976;2023-04-03T11:21:04;2.73;;;1.70;;
15936;SDS011;9163;48.818;8.976;2023-04-03T11:23:39;4.67;;;1.60;;
15936;SDS011;9163;48.818;8.976;2023-04-03T11:26:09;2.27;;;1.30;;
15936;SDS011;9163;48.818;8.976;2023-04-03T11:28:38;5.83;;;1.60;;
15936;SDS011;9163;48.818;8.976;2023-04-03T11:31:09;2.63;;;1.77;;
15936;SDS011;9163;48.818;8.976;2023-04-03T11:33:58;3.00;;;1.50;;
15936;SDS011;9163;48.818;8.976;2023-04-03T11:36:38;2.63;;;1.50;;
15936;SDS011;9163;48.818;8.976;2023-04-03T11:39:10;3.50;;;1.53;;
15936;SDS011;9163;48.818;8.976;2023-04-03T11:41:46;2.23;;;1.40;;
15936;SDS011;9163;48.818;8.976;2023-04-03T11:44:27;2.03;;;1.40;;
15936;SDS011;9163;48.818;8.976;2023-04-03T11:47:02;3.77;;;1.40;;
15936;SDS011;9163;48.818;8.976;2023-04-03T11:49:52;2.93;;;1.40;;
15936;SDS011;9163;48.818;8.976;2023-04-03T11:55:41;3.30;;;2.13;;
15936;SDS011;9163;48.818;8.976;2023-04-03T11:58:14;2.57;;;1.70;;
15936;SDS011;9163;48.818;8.976;2023-04-03T12:00:47;3.03;;;1.50;;
15936;SDS011;9163;48.818;8.976;2023-04-03T12:15:50;5.33;;;1.80;;
15936;SDS011;9163;48.818;8.976;2023-04-03T12:18:36;3.27;;;1.73;;
15936;SDS011;9163;48.818;8.976;2023-04-03T12:21:08;2.37;;;1.53;;
15936;SDS011;9163;48.818;8.976;2023-04-03T12:23:36;3.40;;;1.53;;
15936;SDS011;9163;48.818;8.976;2023-04-03T12:26:25;5.20;;;1.60;;
15936;SDS011;9163;48.818;8.976;2023-04-03T12:28:54;2.47;;;1.60;;
15936;SDS011;9163;48.818;8.976;2023-04-03T12:31:23;3.27;;;1.73;;
15936;SDS011;9163;48.818;8.976;2023-04-03T12:34:01;2.67;;;1.70;;
15936;SDS011;9163;48.818;8.976;2023-04-03T12:36:42;4.93;;;1.70;;
15936;SDS011;9163;48.818;8.976;2023-04-03T12:42:16;2.47;;;1.43;;
15936;SDS011;9163;48.818;8.976;2023-04-03T12:45:02;4.23;;;1.70;;
15936;SDS011;9163;48.818;8.976;2023-04-03T12:47:41;2.90;;;1.57;;
15936;SDS011;9163;48.818;8.976;2023-04-03T12:50:17;2.03;;;1.30;;
15936;SDS011;9163;48.818;8.976;2023-04-03T12:52:50;2.97;;;1.50;;
15936;SDS011;9163;48.818;8.976;2023-04-03T12:55:23;2.30;;;1.40;;
15936;SDS011;9163;48.818;8.976;2023-04-03T12:57:51;3.10;;;1.80;;
15936;SDS011;9163;48.818;8.976;2023-04-03T13:00:29;3.20;;;1.67;;
15936;SDS011;9163;48.818;8.976;2023-04-03T13:02:59;2.37;;;1.50;;
15936;SDS011;9163;48.818;8.976;2023-04-03T13:05:27;4.70;;;1.70;;
15936;SDS011;9163;48.818;8.976;2023-04-03T13:07:58;3.67;;;1.60;;
15936;SDS011;9163;48.818;8.976;2023-04-03T13:10:27;5.00;;;1.70;;
15936;SDS011;9163;48.818;8.976;2023-04-03T13:12:57;3.37;;;1.50;;
15936;SDS011;9163;48.818;8.976;2023-04-03T13:15:25;4.23;;;1.60;;
15936;SDS011;9163;48.818;8.976;2023-04-03T13:17:54;2.40;;;1.60;;
15936;SDS011;9163;48.818;8.976;2023-04-03T13:20:24;4.13;;;1.70;;
15936;SDS011;9163;48.818;8.976;2023-04-03T13:22:54;3.50;;;1.70;;
15936;SDS011;9163;48.818;8.976;2023-04-03T13:25:26;2.83;;;1.80;;
15936;SDS011;9163;48.818;8.976;2023-04-03T13:27:59;3.27;;;1.60;;
15936;SDS011;9163;48.818;8.976;2023-04-03T13:30:29;1.93;;;1.33;;
15936;SDS011;9163;48.818;8.976;2023-04-03T13:32:59;3.30;;;1.60;;
15936;SDS011;9163;48.818;8.976;2023-04-03T13:35:34;2.07;;;1.40;;
15936;SDS011;9163;48.818;8.976;2023-04-03T13:38:05;2.23;;;1.47;;
15936;SDS011;9163;48.818;8.976;2023-04-03T13:40:48;2.50;;;1.60;;
15936;SDS011;9163;48.818;8.976;2023-04-03T13:43:18;3.93;;;1.43;;
15936;SDS011;9163;48.818;8.976;2023-04-03T13:45:55;2.20;;;1.70;;
15936;SDS011;9163;48.818;8.976;2023-04-03T13:48:24;4.80;;;1.53;;
15936;SDS011;9163;48.818;8.976;2023-04-03T13:50:57;2.60;;;1.40;;
15936;SDS011;9163;48.818;8.976;2023-04-03T13:53:26;4.83;;;1.90;;
15936;SDS011;9163;48.818;8.976;2023-04-03T13:55:57;6.33;;;1.93;;
15936;SDS011;9163;48.818;8.976;2023-04-03T13:58:32;3.70;;;1.70;;
15936;SDS011;9163;48.818;8.976;2023-04-03T14:01:06;3.33;;;1.87;;
15936;SDS011;9163;48.818;8.976;2023-04-03T14:03:38;3.03;;;1.53;;
15936;SDS011;9163;48.818;8.976;2023-04-03T14:06:10;2.87;;;1.73;;
15936;SDS011;9163;48.818;8.976;2023-04-03T14:08:38;1.70;;;1.40;;
15936;SDS011;9163;48.818;8.976;2023-04-03T14:11:08;2.40;;;1.77;;
15936;SDS011;9163;48.818;8.976;2023-04-03T14:13:42;2.20;;;1.50;;
15936;SDS011;9163;48.818;8.976;2023-04-03T14:16:12;4.33;;;1.67;;
15936;SDS011;9163;48.818;8.976;2023-04-03T14:18:42;3.57;;;1.77;;
15936;SDS011;9163;48.818;8.976;2023-04-03T14:21:11;3.47;;;1.80;;
15936;SDS011;9163;48.818;8.976;2023-04-03T14:23:38;2.27;;;1.57;;
15936;SDS011;9163;48.818;8.976;2023-04-03T14:26:08;4.37;;;1.73;;
15936;SDS011;9163;48.818;8.976;2023-04-03T14:28:38;3.00;;;1.70;;
15936;SDS011;9163;48.818;8.976;2023-04-03T14:31:08;2.70;;;1.53;;
15936;SDS011;9163;48.818;8.976;2023-04-03T14:33:36;3.63;;;1.90;;
15936;SDS011;9163;48.818;8.976;2023-04-03T14:36:09;2.87;;;1.60;;
15936;SDS011;9163;48.818;8.976;2023-04-03T14:38:39;3.77;;;1.90;;
15936;SDS011;9163;48.818;8.976;2023-04-03T14:41:07;3.17;;;1.70;;
15936;SDS011;9163;48.818;8.976;2023-04-03T14:43:36;2.07;;;1.60;;
15936;SDS011;9163;48.818;8.976;2023-04-03T14:46:04;3.27;;;1.80;;
15936;SDS011;9163;48.818;8.976;2023-04-03T14:48:33;2.57;;;1.70;;
15936;SDS011;9163;48.818;8.976;2023-04-03T14:51:00;2.70;;;1.77;;
15936;SDS011;9163;48.818;8.976;2023-04-03T14:53:27;2.90;;;1.77;;
15936;SDS011;9163;48.818;8.976;2023-04-03T14:55:56;2.67;;;1.70;;
15936;SDS011;9163;48.818;8.976;2023-04-03T14:58:23;2.77;;;1.60;;
15936;SDS011;9163;48.818;8.976;2023-04-03T15:00:50;2.13;;;1.50;;
15936;SDS011;9163;48.818;8.976;2023-04-03T15:03:18;3.10;;;1.70;;
15936;SDS011;9163;48.818;8.976;2023-04-03T15:05:49;4.10;;;1.87;;
15936;SDS011;9163;48.818;8.976;2023-04-03T15:08:17;2.80;;;1.50;;
15936;SDS011;9163;48.818;8.976;2023-04-03T15:10:47;4.13;;;1.70;;
15936;SDS011;9163;48.818;8.976;2023-04-03T15:13:14;3.10;;;1.57;;
15936;SDS011;9163;48.818;8.976;2023-04-03T15:15:42;3.90;;;1.77;;
15936;SDS011;9163;48.818;8.976;2023-04-03T15:18:14;4.00;;;1.50;;
15936;SDS011;9163;48.818;8.976;2023-04-03T15:20:45;3.83;;;1.60;;
15936;SDS011;9163;48.818;8.976;2023-04-03T15:23:15;6.17;;;1.70;;
15936;SDS011;9163;48.818;8.976;2023-04-03T15:25:43;1.93;;;1.40;;
15936;SDS011;9163;48.818;8.976;2023-04-03T15:28:13;3.13;;;1.90;;
15936;SDS011;9163;48.818;8.976;2023-04-03T15:30:45;2.43;;;1.50;;
15936;SDS011;9163;48.818;8.976;2023-04-03T15:33:13;2.63;;;1.53;;
15936;SDS011;9163;48.818;8.976;2023-04-03T15:35:41;2.77;;;1.60;;
15936;SDS011;9163;48.818;8.976;2023-04-03T15:38:08;1.73;;;1.40;;
15936;SDS011;9163;48.818;8.976;2023-04-03T15:40:37;2.30;;;1.40;;